sensor_id;sensor_type;location;lat;lon;timestamp;temperature;humidity
33811;DHT22;20119;48.334;16.206;2022-07-10T00:00:09;14.40;99.90
33811;DHT22;20119;48.334;16.206;2022-07-10T00:02:37;14.40;99.90
33811;DHT22;20119;48.334;16.206;2022-07-10T00:05:06;14.40;99.90
33811;DHT22;20119;48.334;16.206;2022-07-10T00:07:34;14.40;99.90
33811;DHT22;20119;48.334;16.206;2022-07-10T00:10:03;14.30;99.90
33811;DHT22;20119;48.334;16.206;2022-07-10T00:12:32;14.30;99.90
33811;DHT22;20119;48.334;16.206;2022-07-10T00:14:59;14.20;99.90
33811;DHT22;20119;48.334;16.206;2022-07-10T00:17:26;14.20;99.90
33811;DHT22;20119;48.334;16.206;2022-07-10T00:19:56;14.10;99.90
33811;DHT22;20119;48.334;16.206;2022-07-10T00:22:26;14.10;99.90
33811;DHT22;20119;48.334;16.206;2022-07-10T00:24:55;14.10;99.90
33811;DHT22;20119;48.334;16.206;2022-07-10T00:27:25;14.10;99.90
33811;DHT22;20119;48.334;16.206;2022-07-10T00:29:53;14.00;99.90
33811;DHT22;20119;48.334;16.206;2022-07-10T00:32:22;13.90;99.90
33811;DHT22;20119;48.334;16.206;2022-07-10T00:34:49;13.90;99.90
33811;DHT22;20119;48.334;16.206;2022-07-10T00:37:17;13.80;99.90
33811;DHT22;20119;48.334;16.206;2022-07-10T00:39:47;13.80;99.90
33811;DHT22;20119;48.334;16.206;2022-07-10T00:42:15;13.70;99.90
33811;DHT22;20119;48.334;16.206;2022-07-10T00:44:44;13.70;99.90
33811;DHT22;20119;48.334;16.206;2022-07-10T00:47:13;13.70;99.90
33811;DHT22;20119;48.334;16.206;2022-07-10T00:49:46;13.70;99.90
33811;DHT22;20119;48.334;16.206;2022-07-10T00:52:15;13.60;99.90
33811;DHT22;20119;48.334;16.206;2022-07-10T00:54:44;13.60;99.90
33811;DHT22;20119;48.334;16.206;2022-07-10T00:57:16;13.60;99.90
33811;DHT22;20119;48.334;16.206;2022-07-10T00:59:48;13.60;99.90
33811;DHT22;20119;48.334;16.206;2022-07-10T01:02:17;13.60;99.90
33811;DHT22;20119;48.334;16.206;2022-07-10T01:04:46;13.50;99.90
33811;DHT22;20119;48.334;16.206;2022-07-10T01:07:15;13.60;99.90
33811;DHT22;20119;48.334;16.206;2022-07-10T01:09:43;13.50;99.90
33811;DHT22;20119;48.334;16.206;2022-07-10T01:12:12;13.60;99.90
33811;DHT22;20119;48.334;16.206;2022-07-10T01:14:41;13.60;99.90
33811;DHT22;20119;48.334;16.206;2022-07-10T01:17:11;13.60;99.90
33811;DHT22;20119;48.334;16.206;2022-07-10T01:19:39;13.70;99.90
33811;DHT22;20119;48.334;16.206;2022-07-10T01:22:08;13.70;99.90
33811;DHT22;20119;48.334;16.206;2022-07-10T01:24:35;13.70;99.90
33811;DHT22;20119;48.334;16.206;2022-07-10T01:27:03;13.80;99.90
33811;DHT22;20119;48.334;16.206;2022-07-10T01:29:31;13.80;99.90
33811;DHT22;20119;48.334;16.206;2022-07-10T01:32:00;13.90;99.90
33811;DHT22;20119;48.334;16.206;2022-07-10T01:34:32;13.90;99.90
33811;DHT22;20119;48.334;16.206;2022-07-10T01:37:01;14.00;99.90
33811;DHT22;20119;48.334;16.206;2022-07-10T01:39:30;14.00;99.90
33811;DHT22;20119;48.334;16.206;2022-07-10T01:41:58;14.00;99.90
33811;DHT22;20119;48.334;16.206;2022-07-10T01:44:25;14.00;99.90
33811;DHT22;20119;48.334;16.206;2022-07-10T01:46:54;14.00;99.90
33811;DHT22;20119;48.334;16.206;2022-07-10T01:49:22;14.10;99.90
33811;DHT22;20119;48.334;16.206;2022-07-10T01:51:51;14.10;99.90
33811;DHT22;20119;48.334;16.206;2022-07-10T01:54:18;14.20;99.90
33811;DHT22;20119;48.334;16.206;2022-07-10T01:56:51;14.20;99.90
33811;DHT22;20119;48.334;16.206;2022-07-10T01:59:19;14.20;99.90
33811;DHT22;20119;48.334;16.206;2022-07-10T02:01:46;14.20;99.90
33811;DHT22;20119;48.334;16.206;2022-07-10T02:04:14;14.20;99.90
33811;DHT22;20119;48.334;16.206;2022-07-10T02:06:59;14.20;99.90
33811;DHT22;20119;48.334;16.206;2022-07-10T02:09:26;14.20;99.90
33811;DHT22;20119;48.334;16.206;2022-07-10T02:11:56;14.20;99.90
33811;DHT22;20119;48.334;16.206;2022-07-10T02:14:23;14.10;99.90
33811;DHT22;20119;48.334;16.206;2022-07-10T02:16:51;14.10;99.90
33811;DHT22;20119;48.334;16.206;2022-07-10T02:19:18;14.10;99.90
33811;DHT22;20119;48.334;16.206;2022-07-10T02:21:47;14.10;99.90
33811;DHT22;20119;48.334;16.206;2022-07-10T02:24:15;14.00;99.90
33811;DHT22;20119;48.334;16.206;2022-07-10T02:26:44;14.00;99.90
33811;DHT22;20119;48.334;16.206;2022-07-10T02:29:14;13.90;99.90
33811;DHT22;20119;48.334;16.206;2022-07-10T02:31:41;13.90;99.90
33811;DHT22;20119;48.334;16.206;2022-07-10T02:34:11;13.80;99.90
33811;DHT22;20119;48.334;16.206;2022-07-10T02:36:40;13.80;99.90
33811;DHT22;20119;48.334;16.206;2022-07-10T02:39:08;13.80;99.90
33811;DHT22;20119;48.334;16.206;2022-07-10T02:41:37;13.70;99.90
33811;DHT22;20119;48.334;16.206;2022-07-10T02:44:07;13.70;99.90
33811;DHT22;20119;48.334;16.206;2022-07-10T02:46:36;13.80;99.90
33811;DHT22;20119;48.334;16.206;2022-07-10T02:49:04;13.80;99.90
33811;DHT22;20119;48.334;16.206;2022-07-10T02:51:35;13.80;99.90
33811;DHT22;20119;48.334;16.206;2022-07-10T02:54:03;13.80;99.90
33811;DHT22;20119;48.334;16.206;2022-07-10T02:56:30;13.80;99.90
33811;DHT22;20119;48.334;16.206;2022-07-10T02:58:58;13.80;99.90
33811;DHT22;20119;48.334;16.206;2022-07-10T03:01:26;13.80;99.90
33811;DHT22;20119;48.334;16.206;2022-07-10T03:03:55;13.80;99.90
33811;DHT22;20119;48.334;16.206;2022-07-10T03:06:23;13.80;99.90
33811;DHT22;20119;48.334;16.206;2022-07-10T03:08:51;13.80;99.90
33811;DHT22;20119;48.334;16.206;2022-07-10T03:11:21;13.90;99.90
33811;DHT22;20119;48.334;16.206;2022-07-10T03:13:49;13.90;99.90
33811;DHT22;20119;48.334;16.206;2022-07-10T03:16:16;13.90;99.90
33811;DHT22;20119;48.334;16.206;2022-07-10T03:18:43;13.90;99.90
33811;DHT22;20119;48.334;16.206;2022-07-10T03:21:14;13.90;99.90
33811;DHT22;20119;48.334;16.206;2022-07-10T03:23:42;13.90;99.90
33811;DHT22;20119;48.334;16.206;2022-07-10T03:26:09;13.90;99.90
33811;DHT22;20119;48.334;16.206;2022-07-10T03:28:38;14.00;99.90
33811;DHT22;20119;48.334;16.206;2022-07-10T03:31:05;14.00;99.90
33811;DHT22;20119;48.334;16.206;2022-07-10T03:33:32;14.00;99.90
33811;DHT22;20119;48.334;16.206;2022-07-10T03:36:01;14.00;99.90
33811;DHT22;20119;48.334;16.206;2022-07-10T03:38:30;14.10;99.90
33811;DHT22;20119;48.334;16.206;2022-07-10T03:40:58;14.10;99.90
33811;DHT22;20119;48.334;16.206;2022-07-10T03:43:26;14.20;99.90
33811;DHT22;20119;48.334;16.206;2022-07-10T03:45:54;14.20;99.90
33811;DHT22;20119;48.334;16.206;2022-07-10T03:48:23;14.20;99.90
33811;DHT22;20119;48.334;16.206;2022-07-10T03:50:50;14.30;99.90
33811;DHT22;20119;48.334;16.206;2022-07-10T03:53:19;14.30;99.90
33811;DHT22;20119;48.334;16.206;2022-07-10T03:55:48;14.40;99.90
33811;DHT22;20119;48.334;16.206;2022-07-10T03:58:16;14.40;99.90
33811;DHT22;20119;48.334;16.206;2022-07-10T04:00:43;14.50;99.90
33811;DHT22;20119;48.334;16.206;2022-07-10T04:03:10;14.50;99.90
33811;DHT22;20119;48.334;16.206;2022-07-10T04:05:40;14.60;99.90
33811;DHT22;20119;48.334;16.206;2022-07-10T04:08:07;14.80;99.90
33811;DHT22;20119;48.334;16.206;2022-07-10T04:10:36;14.90;99.90
33811;DHT22;20119;48.334;16.206;2022-07-10T04:13:04;15.00;99.90
33811;DHT22;20119;48.334;16.206;2022-07-10T04:15:33;15.10;99.90
33811;DHT22;20119;48.334;16.206;2022-07-10T04:18:01;15.40;99.90
33811;DHT22;20119;48.334;16.206;2022-07-10T04:20:29;15.50;99.90
33811;DHT22;20119;48.334;16.206;2022-07-10T04:22:58;15.80;99.90
33811;DHT22;20119;48.334;16.206;2022-07-10T04:25:25;15.90;99.90
33811;DHT22;20119;48.334;16.206;2022-07-10T04:27:53;15.90;99.90
33811;DHT22;20119;48.334;16.206;2022-07-10T04:30:24;16.00;99.90
33811;DHT22;20119;48.334;16.206;2022-07-10T04:32:53;15.90;99.90
33811;DHT22;20119;48.334;16.206;2022-07-10T04:35:21;15.90;99.90
33811;DHT22;20119;48.334;16.206;2022-07-10T04:37:49;15.90;99.90
33811;DHT22;20119;48.334;16.206;2022-07-10T04:40:18;15.80;99.90
33811;DHT22;20119;48.334;16.206;2022-07-10T04:42:46;15.90;99.90
33811;DHT22;20119;48.334;16.206;2022-07-10T04:45:14;15.90;99.90
33811;DHT22;20119;48.334;16.206;2022-07-10T04:47:42;15.90;99.90
33811;DHT22;20119;48.334;16.206;2022-07-10T04:50:11;16.10;99.90
33811;DHT22;20119;48.334;16.206;2022-07-10T04:52:40;16.20;99.90
33811;DHT22;20119;48.334;16.206;2022-07-10T04:55:08;16.10;99.90
33811;DHT22;20119;48.334;16.206;2022-07-10T04:57:36;16.20;99.90
33811;DHT22;20119;48.334;16.206;2022-07-10T05:00:06;16.40;99.90
33811;DHT22;20119;48.334;16.206;2022-07-10T05:02:33;16.50;99.90
33811;DHT22;20119;48.334;16.206;2022-07-10T05:05:02;16.60;99.90
33811;DHT22;20119;48.334;16.206;2022-07-10T05:07:29;16.70;99.90
33811;DHT22;20119;48.334;16.206;2022-07-10T05:09:58;16.90;99.90
33811;DHT22;20119;48.334;16.206;2022-07-10T05:12:25;16.90;99.90
33811;DHT22;20119;48.334;16.206;2022-07-10T05:14:53;16.70;99.90
33811;DHT22;20119;48.334;16.206;2022-07-10T05:17:22;16.80;99.90
33811;DHT22;20119;48.334;16.206;2022-07-10T05:19:49;16.90;99.90
33811;DHT22;20119;48.334;16.206;2022-07-10T05:22:21;16.80;99.90
33811;DHT22;20119;48.334;16.206;2022-07-10T05:24:47;16.90;99.90
33811;DHT22;20119;48.334;16.206;2022-07-10T05:27:15;16.90;99.90
33811;DHT22;20119;48.334;16.206;2022-07-10T05:29:44;16.90;99.90
33811;DHT22;20119;48.334;16.206;2022-07-10T05:32:12;17.10;99.90
33811;DHT22;20119;48.334;16.206;2022-07-10T05:34:40;17.30;99.90
33811;DHT22;20119;48.334;16.206;2022-07-10T05:37:08;17.40;99.90
33811;DHT22;20119;48.334;16.206;2022-07-10T05:39:37;17.50;99.90
33811;DHT22;20119;48.334;16.206;2022-07-10T05:42:05;17.40;99.90
33811;DHT22;20119;48.334;16.206;2022-07-10T05:44:34;17.40;99.90
33811;DHT22;20119;48.334;16.206;2022-07-10T05:47:02;17.40;99.90
33811;DHT22;20119;48.334;16.206;2022-07-10T05:49:32;17.20;99.90
33811;DHT22;20119;48.334;16.206;2022-07-10T05:52:00;17.00;99.90
33811;DHT22;20119;48.334;16.206;2022-07-10T05:54:28;16.90;99.90
33811;DHT22;20119;48.334;16.206;2022-07-10T05:56:58;16.80;99.90
33811;DHT22;20119;48.334;16.206;2022-07-10T05:59:27;16.80;99.90
33811;DHT22;20119;48.334;16.206;2022-07-10T06:01:55;16.70;99.90
33811;DHT22;20119;48.334;16.206;2022-07-10T06:04:23;16.60;99.90
33811;DHT22;20119;48.334;16.206;2022-07-10T06:06:51;16.50;99.90
33811;DHT22;20119;48.334;16.206;2022-07-10T06:09:19;16.60;99.90
33811;DHT22;20119;48.334;16.206;2022-07-10T06:11:47;16.80;99.90
33811;DHT22;20119;48.334;16.206;2022-07-10T06:14:19;16.90;99.90
33811;DHT22;20119;48.334;16.206;2022-07-10T06:16:46;17.10;99.90
33811;DHT22;20119;48.334;16.206;2022-07-10T06:19:15;17.00;99.90
33811;DHT22;20119;48.334;16.206;2022-07-10T06:21:44;16.90;99.90
33811;DHT22;20119;48.334;16.206;2022-07-10T06:24:12;17.00;99.90
33811;DHT22;20119;48.334;16.206;2022-07-10T06:26:41;17.10;99.90
33811;DHT22;20119;48.334;16.206;2022-07-10T06:29:09;17.10;99.90
33811;DHT22;20119;48.334;16.206;2022-07-10T06:31:37;17.30;99.90
33811;DHT22;20119;48.334;16.206;2022-07-10T06:34:06;17.50;99.90
33811;DHT22;20119;48.334;16.206;2022-07-10T06:36:33;17.70;99.90
33811;DHT22;20119;48.334;16.206;2022-07-10T06:39:01;17.80;99.90
33811;DHT22;20119;48.334;16.206;2022-07-10T06:41:29;18.00;99.90
33811;DHT22;20119;48.334;16.206;2022-07-10T06:43:56;18.30;99.90
33811;DHT22;20119;48.334;16.206;2022-07-10T06:46:24;18.50;99.90
33811;DHT22;20119;48.334;16.206;2022-07-10T06:48:54;18.70;99.90
33811;DHT22;20119;48.334;16.206;2022-07-10T06:51:21;18.10;99.90
33811;DHT22;20119;48.334;16.206;2022-07-10T06:53:48;18.10;99.90
33811;DHT22;20119;48.334;16.206;2022-07-10T06:56:16;18.00;99.90
33811;DHT22;20119;48.334;16.206;2022-07-10T06:58:44;17.90;99.90
33811;DHT22;20119;48.334;16.206;2022-07-10T07:01:12;17.90;99.90
33811;DHT22;20119;48.334;16.206;2022-07-10T07:03:40;17.70;99.90
33811;DHT22;20119;48.334;16.206;2022-07-10T07:06:09;17.80;99.90
33811;DHT22;20119;48.334;16.206;2022-07-10T07:08:36;17.70;99.90
33811;DHT22;20119;48.334;16.206;2022-07-10T07:11:05;17.90;99.90
33811;DHT22;20119;48.334;16.206;2022-07-10T07:13:33;17.80;99.90
33811;DHT22;20119;48.334;16.206;2022-07-10T07:16:03;17.90;99.90
33811;DHT22;20119;48.334;16.206;2022-07-10T07:18:34;17.80;99.90
33811;DHT22;20119;48.334;16.206;2022-07-10T07:21:14;17.70;99.90
33811;DHT22;20119;48.334;16.206;2022-07-10T07:24:00;17.30;99.90
33811;DHT22;20119;48.334;16.206;2022-07-10T07:26:28;16.90;99.90
33811;DHT22;20119;48.334;16.206;2022-07-10T07:28:55;16.90;99.90
33811;DHT22;20119;48.334;16.206;2022-07-10T07:31:23;16.80;99.90
33811;DHT22;20119;48.334;16.206;2022-07-10T07:33:52;16.60;99.90
33811;DHT22;20119;48.334;16.206;2022-07-10T07:36:22;16.40;99.90
33811;DHT22;20119;48.334;16.206;2022-07-10T07:38:49;16.00;99.90
33811;DHT22;20119;48.334;16.206;2022-07-10T07:41:18;15.90;99.90
33811;DHT22;20119;48.334;16.206;2022-07-10T07:43:45;15.70;99.90
33811;DHT22;20119;48.334;16.206;2022-07-10T07:46:14;15.70;99.90
33811;DHT22;20119;48.334;16.206;2022-07-10T07:48:42;15.60;99.90
33811;DHT22;20119;48.334;16.206;2022-07-10T07:51:10;15.50;99.90
33811;DHT22;20119;48.334;16.206;2022-07-10T07:53:39;15.60;99.90
33811;DHT22;20119;48.334;16.206;2022-07-10T07:56:08;15.60;99.90
33811;DHT22;20119;48.334;16.206;2022-07-10T07:58:35;15.80;99.90
33811;DHT22;20119;48.334;16.206;2022-07-10T08:01:03;15.80;99.90
33811;DHT22;20119;48.334;16.206;2022-07-10T08:03:31;15.80;99.90
33811;DHT22;20119;48.334;16.206;2022-07-10T08:05:58;15.90;99.90
33811;DHT22;20119;48.334;16.206;2022-07-10T08:08:26;15.70;99.90
33811;DHT22;20119;48.334;16.206;2022-07-10T08:11:00;15.70;99.90
33811;DHT22;20119;48.334;16.206;2022-07-10T08:13:28;15.60;99.90
33811;DHT22;20119;48.334;16.206;2022-07-10T08:15:58;15.60;99.90
33811;DHT22;20119;48.334;16.206;2022-07-10T08:18:25;15.50;99.90
33811;DHT22;20119;48.334;16.206;2022-07-10T08:20:53;15.40;99.90
33811;DHT22;20119;48.334;16.206;2022-07-10T08:23:23;15.40;99.90
33811;DHT22;20119;48.334;16.206;2022-07-10T08:25:50;15.30;99.90
33811;DHT22;20119;48.334;16.206;2022-07-10T08:28:20;15.30;99.90
33811;DHT22;20119;48.334;16.206;2022-07-10T08:30:48;15.30;99.90
33811;DHT22;20119;48.334;16.206;2022-07-10T08:33:16;15.40;99.90
33811;DHT22;20119;48.334;16.206;2022-07-10T08:35:44;15.40;99.90
33811;DHT22;20119;48.334;16.206;2022-07-10T08:38:12;15.50;99.90
33811;DHT22;20119;48.334;16.206;2022-07-10T08:40:41;15.40;99.90
33811;DHT22;20119;48.334;16.206;2022-07-10T08:43:10;15.50;99.90
33811;DHT22;20119;48.334;16.206;2022-07-10T08:45:41;15.60;99.90
33811;DHT22;20119;48.334;16.206;2022-07-10T08:48:09;15.50;99.90
33811;DHT22;20119;48.334;16.206;2022-07-10T08:50:44;15.80;99.90
33811;DHT22;20119;48.334;16.206;2022-07-10T08:53:17;15.80;99.90
33811;DHT22;20119;48.334;16.206;2022-07-10T08:55:46;16.10;99.90
33811;DHT22;20119;48.334;16.206;2022-07-10T08:58:14;16.50;99.90
33811;DHT22;20119;48.334;16.206;2022-07-10T09:00:43;17.00;99.90
33811;DHT22;20119;48.334;16.206;2022-07-10T09:03:12;17.40;99.90
33811;DHT22;20119;48.334;16.206;2022-07-10T09:05:40;18.40;99.90
33811;DHT22;20119;48.334;16.206;2022-07-10T09:08:22;19.10;99.90
33811;DHT22;20119;48.334;16.206;2022-07-10T09:10:50;19.60;99.90
33811;DHT22;20119;48.334;16.206;2022-07-10T09:13:18;19.20;99.90
33811;DHT22;20119;48.334;16.206;2022-07-10T09:15:51;18.80;99.90
33811;DHT22;20119;48.334;16.206;2022-07-10T09:18:24;18.60;99.90
33811;DHT22;20119;48.334;16.206;2022-07-10T09:20:54;18.10;99.90
33811;DHT22;20119;48.334;16.206;2022-07-10T09:23:23;18.30;99.90
33811;DHT22;20119;48.334;16.206;2022-07-10T09:25:51;18.20;99.90
33811;DHT22;20119;48.334;16.206;2022-07-10T09:28:21;18.40;99.90
33811;DHT22;20119;48.334;16.206;2022-07-10T09:30:51;18.60;99.90
33811;DHT22;20119;48.334;16.206;2022-07-10T09:33:20;19.10;99.90
33811;DHT22;20119;48.334;16.206;2022-07-10T09:36:03;19.00;99.90
33811;DHT22;20119;48.334;16.206;2022-07-10T09:38:50;18.90;99.90
33811;DHT22;20119;48.334;16.206;2022-07-10T09:41:24;18.80;99.90
33811;DHT22;20119;48.334;16.206;2022-07-10T09:43:52;18.80;99.90
33811;DHT22;20119;48.334;16.206;2022-07-10T09:46:25;18.30;99.90
33811;DHT22;20119;48.334;16.206;2022-07-10T09:49:04;18.10;99.90
33811;DHT22;20119;48.334;16.206;2022-07-10T09:51:36;18.40;99.90
33811;DHT22;20119;48.334;16.206;2022-07-10T09:54:05;18.20;99.90
33811;DHT22;20119;48.334;16.206;2022-07-10T09:56:41;18.60;99.90
33811;DHT22;20119;48.334;16.206;2022-07-10T09:59:12;18.70;99.90
33811;DHT22;20119;48.334;16.206;2022-07-10T10:01:45;18.90;99.90
33811;DHT22;20119;48.334;16.206;2022-07-10T10:04:15;19.10;99.90
33811;DHT22;20119;48.334;16.206;2022-07-10T10:06:46;19.30;99.90
33811;DHT22;20119;48.334;16.206;2022-07-10T10:09:21;19.00;99.90
33811;DHT22;20119;48.334;16.206;2022-07-10T10:11:56;19.60;99.90
33811;DHT22;20119;48.334;16.206;2022-07-10T10:14:27;19.30;99.90
33811;DHT22;20119;48.334;16.206;2022-07-10T10:16:58;18.90;99.90
33811;DHT22;20119;48.334;16.206;2022-07-10T10:19:27;18.90;99.90
33811;DHT22;20119;48.334;16.206;2022-07-10T10:22:15;19.10;99.90
33811;DHT22;20119;48.334;16.206;2022-07-10T10:24:43;19.00;99.90
33811;DHT22;20119;48.334;16.206;2022-07-10T10:27:12;19.40;99.90
33811;DHT22;20119;48.334;16.206;2022-07-10T10:29:41;19.70;99.90
33811;DHT22;20119;48.334;16.206;2022-07-10T10:32:11;20.20;99.90
33811;DHT22;20119;48.334;16.206;2022-07-10T10:34:44;19.90;99.90
33811;DHT22;20119;48.334;16.206;2022-07-10T10:37:34;19.40;99.90
33811;DHT22;20119;48.334;16.206;2022-07-10T10:40:05;19.20;99.90
33811;DHT22;20119;48.334;16.206;2022-07-10T10:42:34;19.50;99.90
33811;DHT22;20119;48.334;16.206;2022-07-10T10:45:21;19.50;99.90
33811;DHT22;20119;48.334;16.206;2022-07-10T10:48:02;19.90;99.90
33811;DHT22;20119;48.334;16.206;2022-07-10T10:50:38;19.70;99.90
33811;DHT22;20119;48.334;16.206;2022-07-10T10:53:18;19.80;99.90
33811;DHT22;20119;48.334;16.206;2022-07-10T10:56:22;19.40;99.90
33811;DHT22;20119;48.334;16.206;2022-07-10T10:58:52;19.30;99.90
33811;DHT22;20119;48.334;16.206;2022-07-10T11:01:29;19.20;99.90
33811;DHT22;20119;48.334;16.206;2022-07-10T11:04:16;19.20;99.90
33811;DHT22;20119;48.334;16.206;2022-07-10T11:06:44;19.50;99.90
33811;DHT22;20119;48.334;16.206;2022-07-10T11:09:28;19.60;99.90
33811;DHT22;20119;48.334;16.206;2022-07-10T11:12:03;19.30;99.90
33811;DHT22;20119;48.334;16.206;2022-07-10T11:14:32;19.30;99.90
33811;DHT22;20119;48.334;16.206;2022-07-10T11:17:01;19.60;99.90
33811;DHT22;20119;48.334;16.206;2022-07-10T11:19:32;19.70;99.90
33811;DHT22;20119;48.334;16.206;2022-07-10T11:24:59;20.00;99.90
33811;DHT22;20119;48.334;16.206;2022-07-10T11:30:18;20.50;99.90
33811;DHT22;20119;48.334;16.206;2022-07-10T11:32:45;20.50;99.90
33811;DHT22;20119;48.334;16.206;2022-07-10T11:35:16;20.80;99.90
33811;DHT22;20119;48.334;16.206;2022-07-10T11:37:51;21.10;99.90
33811;DHT22;20119;48.334;16.206;2022-07-10T11:40:19;21.30;99.90
33811;DHT22;20119;48.334;16.206;2022-07-10T11:42:49;21.30;99.90
33811;DHT22;20119;48.334;16.206;2022-07-10T11:45:26;21.00;99.90
33811;DHT22;20119;48.334;16.206;2022-07-10T11:47:55;21.10;99.90
33811;DHT22;20119;48.334;16.206;2022-07-10T11:50:25;21.00;99.90
33811;DHT22;20119;48.334;16.206;2022-07-10T11:52:54;20.70;99.90
33811;DHT22;20119;48.334;16.206;2022-07-10T11:55:22;20.70;99.90
33811;DHT22;20119;48.334;16.206;2022-07-10T11:57:51;20.90;99.90
33811;DHT22;20119;48.334;16.206;2022-07-10T12:00:24;21.00;99.90
33811;DHT22;20119;48.334;16.206;2022-07-10T12:02:53;21.10;99.90
33811;DHT22;20119;48.334;16.206;2022-07-10T12:05:36;20.80;99.90
33811;DHT22;20119;48.334;16.206;2022-07-10T12:08:05;20.70;99.90
33811;DHT22;20119;48.334;16.206;2022-07-10T12:10:34;21.00;99.90
33811;DHT22;20119;48.334;16.206;2022-07-10T12:13:08;21.20;99.90
33811;DHT22;20119;48.334;16.206;2022-07-10T12:15:38;20.90;99.90
33811;DHT22;20119;48.334;16.206;2022-07-10T12:18:07;20.90;99.90
33811;DHT22;20119;48.334;16.206;2022-07-10T12:20:37;21.30;99.90
33811;DHT22;20119;48.334;16.206;2022-07-10T12:23:08;21.70;99.90
33811;DHT22;20119;48.334;16.206;2022-07-10T12:25:36;22.10;99.90
33811;DHT22;20119;48.334;16.206;2022-07-10T12:28:04;21.70;99.90
33811;DHT22;20119;48.334;16.206;2022-07-10T12:30:41;21.10;99.90
33811;DHT22;20119;48.334;16.206;2022-07-10T12:33:11;20.70;99.90
33811;DHT22;20119;48.334;16.206;2022-07-10T12:35:49;20.10;99.90
33811;DHT22;20119;48.334;16.206;2022-07-10T12:38:18;20.00;99.90
33811;DHT22;20119;48.334;16.206;2022-07-10T12:40:46;20.20;99.90
33811;DHT22;20119;48.334;16.206;2022-07-10T12:43:24;20.30;99.90
33811;DHT22;20119;48.334;16.206;2022-07-10T12:46:08;20.30;99.90
33811;DHT22;20119;48.334;16.206;2022-07-10T12:48:37;20.50;99.90
33811;DHT22;20119;48.334;16.206;2022-07-10T12:51:25;20.20;99.90
33811;DHT22;20119;48.334;16.206;2022-07-10T12:53:55;19.90;99.90
33811;DHT22;20119;48.334;16.206;2022-07-10T12:56:33;19.80;99.90
33811;DHT22;20119;48.334;16.206;2022-07-10T12:59:05;19.90;99.90
33811;DHT22;20119;48.334;16.206;2022-07-10T13:01:42;20.20;99.90
33811;DHT22;20119;48.334;16.206;2022-07-10T13:04:11;20.20;99.90
33811;DHT22;20119;48.334;16.206;2022-07-10T13:06:41;20.40;99.90
33811;DHT22;20119;48.334;16.206;2022-07-10T13:09:21;20.90;99.90
33811;DHT22;20119;48.334;16.206;2022-07-10T13:11:49;20.70;99.90
33811;DHT22;20119;48.334;16.206;2022-07-10T13:14:17;20.70;99.90
33811;DHT22;20119;48.334;16.206;2022-07-10T13:16:45;20.60;99.90
33811;DHT22;20119;48.334;16.206;2022-07-10T13:19:13;20.60;99.90
33811;DHT22;20119;48.334;16.206;2022-07-10T13:21:43;20.40;99.90
33811;DHT22;20119;48.334;16.206;2022-07-10T13:24:10;20.20;99.90
33811;DHT22;20119;48.334;16.206;2022-07-10T13:26:37;20.50;99.90
33811;DHT22;20119;48.334;16.206;2022-07-10T13:29:05;20.30;99.90
33811;DHT22;20119;48.334;16.206;2022-07-10T13:31:33;20.40;99.90
33811;DHT22;20119;48.334;16.206;2022-07-10T13:34:01;20.10;99.90
33811;DHT22;20119;48.334;16.206;2022-07-10T13:36:30;20.20;99.90
33811;DHT22;20119;48.334;16.206;2022-07-10T13:38:59;20.50;99.90
33811;DHT22;20119;48.334;16.206;2022-07-10T13:41:26;20.80;99.90
33811;DHT22;20119;48.334;16.206;2022-07-10T13:43:54;21.00;99.90
33811;DHT22;20119;48.334;16.206;2022-07-10T13:46:22;21.10;99.90
33811;DHT22;20119;48.334;16.206;2022-07-10T13:48:51;20.90;99.90
33811;DHT22;20119;48.334;16.206;2022-07-10T13:51:18;20.60;99.90
33811;DHT22;20119;48.334;16.206;2022-07-10T13:53:46;20.60;99.90
33811;DHT22;20119;48.334;16.206;2022-07-10T13:56:15;20.40;99.90
33811;DHT22;20119;48.334;16.206;2022-07-10T13:58:44;20.20;99.90
33811;DHT22;20119;48.334;16.206;2022-07-10T14:01:11;20.20;99.90
33811;DHT22;20119;48.334;16.206;2022-07-10T14:03:39;19.90;99.90
33811;DHT22;20119;48.334;16.206;2022-07-10T14:06:07;20.30;99.90
33811;DHT22;20119;48.334;16.206;2022-07-10T14:08:35;20.50;99.90
33811;DHT22;20119;48.334;16.206;2022-07-10T14:11:02;20.70;99.90
33811;DHT22;20119;48.334;16.206;2022-07-10T14:13:31;20.60;99.90
33811;DHT22;20119;48.334;16.206;2022-07-10T14:15:58;20.70;99.90
33811;DHT22;20119;48.334;16.206;2022-07-10T14:18:26;20.60;99.90
33811;DHT22;20119;48.334;16.206;2022-07-10T14:21:03;20.60;99.90
33811;DHT22;20119;48.334;16.206;2022-07-10T14:23:35;20.50;99.90
33811;DHT22;20119;48.334;16.206;2022-07-10T14:26:03;20.30;99.90
33811;DHT22;20119;48.334;16.206;2022-07-10T14:28:32;20.50;99.90
33811;DHT22;20119;48.334;16.206;2022-07-10T14:31:04;20.60;99.90
33811;DHT22;20119;48.334;16.206;2022-07-10T14:33:32;20.90;99.90
33811;DHT22;20119;48.334;16.206;2022-07-10T14:36:00;21.00;99.90
33811;DHT22;20119;48.334;16.206;2022-07-10T14:38:28;21.20;99.90
33811;DHT22;20119;48.334;16.206;2022-07-10T14:40:57;20.90;99.90
33811;DHT22;20119;48.334;16.206;2022-07-10T14:43:25;20.90;99.90
33811;DHT22;20119;48.334;16.206;2022-07-10T14:45:55;20.90;99.90
33811;DHT22;20119;48.334;16.206;2022-07-10T14:48:23;20.80;99.90
33811;DHT22;20119;48.334;16.206;2022-07-10T14:50:51;20.90;99.90
33811;DHT22;20119;48.334;16.206;2022-07-10T14:53:23;21.10;99.90
33811;DHT22;20119;48.334;16.206;2022-07-10T14:55:52;21.20;99.90
33811;DHT22;20119;48.334;16.206;2022-07-10T14:58:21;21.30;99.90
33811;DHT22;20119;48.334;16.206;2022-07-10T15:00:49;21.10;99.90
33811;DHT22;20119;48.334;16.206;2022-07-10T15:03:18;21.00;99.90
33811;DHT22;20119;48.334;16.206;2022-07-10T15:05:46;20.90;99.90
33811;DHT22;20119;48.334;16.206;2022-07-10T15:08:18;20.90;99.90
33811;DHT22;20119;48.334;16.206;2022-07-10T15:10:46;20.60;99.90
33811;DHT22;20119;48.334;16.206;2022-07-10T15:13:14;20.60;99.90
33811;DHT22;20119;48.334;16.206;2022-07-10T15:15:42;20.80;99.90
33811;DHT22;20119;48.334;16.206;2022-07-10T15:18:11;20.80;99.90
33811;DHT22;20119;48.334;16.206;2022-07-10T15:20:40;21.00;99.90
33811;DHT22;20119;48.334;16.206;2022-07-10T15:23:08;20.90;99.90
33811;DHT22;20119;48.334;16.206;2022-07-10T15:25:35;20.70;99.90
33811;DHT22;20119;48.334;16.206;2022-07-10T15:28:05;20.30;99.90
33811;DHT22;20119;48.334;16.206;2022-07-10T15:30:33;20.50;99.90
33811;DHT22;20119;48.334;16.206;2022-07-10T15:33:01;20.50;99.90
33811;DHT22;20119;48.334;16.206;2022-07-10T15:35:31;20.40;99.90